Time;durP1;ratioP1;P1;durP2;ratioP2;P2;SDS_P1;SDS_P2;PMS_P1;PMS_P2;Temp;Humidity;BMP_temperature;BMP_pressure;BME280_temperature;BME280_humidity;BME280_pressure;Samples;Min_cycle;Max_cycle;Signal;HPM_P1;HPM_P2
2022/08/27 00:02:34;;;;;;;6.03;5.40;;;20.20;99.90;;;;;;4985238;28;20478;-86
2022/08/27 00:05:18;;;;;;;9.33;5.93;;;20.40;99.90;;;;;;4982779;28;20468;-87
2022/08/27 00:07:56;;;;;;;10.67;4.83;;;20.50;99.90;;;;;;4985080;28;20440;-86
2022/08/27 00:10:26;;;;;;;9.70;6.07;;;20.60;99.90;;;;;;4984443;28;20445;-86
2022/08/27 00:12:55;;;;;;;7.40;5.97;;;20.80;99.90;;;;;;4976377;28;20438;-84
2022/08/27 00:15:25;;;;;;;10.20;5.90;;;20.70;99.90;;;;;;4981775;28;20600;-84
2022/08/27 00:17:54;;;;;;;6.50;5.90;;;20.50;99.90;;;;;;4982582;28;20474;-85
2022/08/27 00:20:27;;;;;;;9.20;6.00;;;20.50;99.90;;;;;;4985790;28;20490;-85
2022/08/27 00:23:15;;;;;;;7.13;5.40;;;20.50;99.90;;;;;;4983546;28;20478;-84
2022/08/27 00:25:44;;;;;;;6.73;5.37;;;20.50;99.90;;;;;;4979304;28;20454;-85
2022/08/27 00:28:17;;;;;;;8.37;6.20;;;20.50;99.90;;;;;;4981269;28;20447;-84
2022/08/27 00:30:50;;;;;;;6.83;5.90;;;20.40;99.90;;;;;;4986685;28;20435;-87
2022/08/27 00:33:20;;;;;;;7.73;5.80;;;20.30;99.90;;;;;;4986886;28;20435;-87
2022/08/27 00:36:02;;;;;;;7.43;5.17;;;19.90;99.90;;;;;;4981732;28;20442;-86
2022/08/27 00:38:34;;;;;;;9.73;6.00;;;20.10;99.90;;;;;;4986532;28;20461;-85
2022/08/27 00:41:01;;;;;;;6.20;4.73;;;20.20;99.90;;;;;;4984661;28;20495;-85
2022/08/27 00:43:53;;;;;;;10.73;5.73;;;20.30;99.90;;;;;;4960512;28;20874;-85
2022/08/27 00:46:47;;;;;;;8.00;6.27;;;20.20;99.90;;;;;;4986122;28;20479;-86
2022/08/27 00:49:23;;;;;;;9.00;6.70;;;20.20;99.90;;;;;;4969174;28;20998;-85
2022/08/27 00:52:01;;;;;;;7.63;6.60;;;20.20;99.90;;;;;;4982639;28;20411;-86
2022/08/27 00:54:29;;;;;;;8.37;7.47;;;20.10;99.90;;;;;;4978929;28;20488;-84
2022/08/27 00:56:58;;;;;;;8.17;7.47;;;20.00;99.90;;;;;;4976631;28;20490;-84
2022/08/27 00:59:31;;;;;;;6.57;5.70;;;19.80;99.90;;;;;;4981373;28;20460;-84
2022/08/27 01:02:17;;;;;;;9.23;5.93;;;19.70;99.90;;;;;;4982182;28;20864;-84
2022/08/27 01:04:47;;;;;;;10.70;6.03;;;19.60;99.90;;;;;;4985477;28;20713;-86
2022/08/27 01:07:15;;;;;;;8.80;6.90;;;19.60;99.90;;;;;;4998712;28;20438;-83
2022/08/27 01:09:44;;;;;;;10.57;7.83;;;19.60;99.90;;;;;;4997785;28;20437;-84
2022/08/27 01:12:12;;;;;;;8.90;8.10;;;19.60;99.90;;;;;;4995823;28;20430;-85
2022/08/27 01:14:42;;;;;;;8.97;6.50;;;19.70;99.90;;;;;;4982509;28;20446;-84
2022/08/27 01:17:11;;;;;;;12.53;6.27;;;19.80;99.90;;;;;;4979076;28;20476;-86
2022/08/27 01:19:48;;;;;;;7.97;7.17;;;19.80;99.90;;;;;;4983065;28;20780;-85
2022/08/27 01:22:52;;;;;;;7.77;6.97;;;19.60;99.90;;;;;;4982001;28;20463;-86
2022/08/27 01:25:22;;;;;;;9.47;7.03;;;19.50;99.90;;;;;;4967818;28;20481;-87
2022/08/27 01:27:57;;;;;;;13.60;6.93;;;19.30;99.90;;;;;;4962277;28;20445;-86
2022/08/27 01:30:25;;;;;;;7.47;6.77;;;19.50;99.90;;;;;;4972997;28;20445;-86
2022/08/27 01:32:53;;;;;;;12.70;7.83;;;19.70;99.90;;;;;;4981679;28;20521;-85
2022/08/27 01:35:22;;;;;;;6.37;5.77;;;19.70;99.90;;;;;;4979727;28;20555;-85
2022/08/27 01:37:52;;;;;;;10.23;7.90;;;19.50;99.90;;;;;;4975451;28;20487;-84
2022/08/27 01:40:23;;;;;;;8.50;6.57;;;19.40;99.90;;;;;;4974614;28;20424;-85
2022/08/27 01:42:54;;;;;;;8.20;7.20;;;19.30;99.90;;;;;;4971361;28;20864;-86
2022/08/27 01:45:52;;;;;;;10.67;7.13;;;19.30;99.90;;;;;;4971459;28;20525;-84
2022/08/27 01:48:21;;;;;;;8.60;7.33;;;19.10;99.90;;;;;;4975302;28;20439;-84
2022/08/27 01:50:49;;;;;;;7.93;7.20;;;19.10;99.90;;;;;;4973259;28;20423;-85
2022/08/27 01:53:23;;;;;;;11.00;7.70;;;19.20;99.90;;;;;;4968261;28;20451;-84
2022/08/27 01:55:52;;;;;;;10.53;7.50;;;19.30;99.90;;;;;;4974463;28;20776;-83
2022/08/27 01:58:21;;;;;;;10.37;7.17;;;19.30;99.90;;;;;;4963183;28;21534;-83
2022/08/27 02:00:52;;;;;;;10.70;7.27;;;19.20;99.90;;;;;;4979968;28;20449;-83
2022/08/27 02:03:23;;;;;;;7.77;6.90;;;19.20;99.90;;;;;;4977642;28;20490;-84
2022/08/27 02:05:50;;;;;;;7.80;6.67;;;19.10;99.90;;;;;;4964259;28;20423;-83
2022/08/27 02:08:20;;;;;;;9.93;8.00;;;19.20;99.90;;;;;;4978934;28;20467;-84
2022/08/27 02:10:49;;;;;;;8.37;7.67;;;19.30;99.90;;;;;;4968571;28;20456;-85
2022/08/27 02:13:17;;;;;;;7.73;6.43;;;19.30;99.90;;;;;;4968899;28;20449;-84
2022/08/27 02:15:45;;;;;;;7.13;6.43;;;19.30;99.90;;;;;;4975746;28;20448;-84
2022/08/27 02:18:15;;;;;;;8.17;6.33;;;19.20;99.90;;;;;;4974832;28;20519;-84
2022/08/27 02:20:44;;;;;;;11.17;7.70;;;19.40;99.90;;;;;;4977951;28;20501;-83
2022/08/27 02:23:13;;;;;;;10.70;7.73;;;19.30;99.90;;;;;;4965342;28;20487;-85
2022/08/27 02:25:40;;;;;;;10.67;7.07;;;19.30;99.90;;;;;;4967914;28;20441;-84
2022/08/27 02:28:08;;;;;;;7.90;6.37;;;19.30;99.90;;;;;;4984801;28;20437;-84
2022/08/27 02:30:36;;;;;;;10.27;7.27;;;19.30;99.90;;;;;;4971920;28;20444;-83
2022/08/27 02:33:11;;;;;;;8.43;7.53;;;19.00;99.90;;;;;;4978488;28;20426;-86
2022/08/27 02:35:41;;;;;;;11.33;6.93;;;18.80;99.90;;;;;;4983763;28;20475;-87
2022/08/27 02:38:11;;;;;;;8.93;6.77;;;18.90;99.90;;;;;;4980143;28;20519;-84
2022/08/27 02:40:39;;;;;;;8.37;6.97;;;18.60;99.90;;;;;;4970734;28;20767;-84
2022/08/27 02:43:08;;;;;;;10.60;6.90;;;18.60;99.90;;;;;;4980362;28;20480;-87
2022/08/27 02:45:41;;;;;;;9.00;6.53;;;18.80;99.90;;;;;;4979591;28;20543;-85
2022/08/27 02:48:08;;;;;;;7.30;6.10;;;18.80;99.90;;;;;;4976622;28;20486;-85
2022/08/27 02:50:36;;;;;;;7.23;6.53;;;18.90;99.90;;;;;;4968605;28;20671;-85
2022/08/27 02:53:05;;;;;;;6.13;5.53;;;18.80;99.90;;;;;;4962714;28;20512;-85
2022/08/27 02:55:32;;;;;;;6.63;5.80;;;18.80;99.90;;;;;;4980383;28;20516;-85
2022/08/27 02:57:59;;;;;;;14.37;7.80;;;18.80;99.90;;;;;;4990144;28;20440;-83
2022/08/27 03:00:28;;;;;;;7.50;6.80;;;18.90;99.90;;;;;;4968516;28;20506;-85
2022/08/27 03:02:56;;;;;;;8.00;7.03;;;18.90;99.90;;;;;;4975861;28;20459;-84
2022/08/27 03:05:23;;;;;;;13.67;6.60;;;19.00;99.90;;;;;;4965950;28;20815;-85
2022/08/27 03:07:51;;;;;;;9.90;7.27;;;18.90;99.90;;;;;;4967594;28;20467;-85
2022/08/27 03:10:20;;;;;;;7.07;6.33;;;18.60;99.90;;;;;;4965154;28;20450;-83
2022/08/27 03:12:47;;;;;;;16.93;8.43;;;18.50;99.90;;;;;;4961055;28;20693;-83
2022/08/27 03:15:16;;;;;;;8.10;7.30;;;18.40;99.90;;;;;;4965462;28;20453;-85
2022/08/27 03:20:29;;;;;;;16.77;8.50;;;18.40;99.90;;;;;;4979086;28;20439;-83
2022/08/27 03:22:56;;;;;;;13.60;8.47;;;18.50;99.90;;;;;;4979477;28;20523;-84
2022/08/27 03:25:23;;;;;;;9.20;7.80;;;18.50;99.90;;;;;;4970719;28;20427;-83
2022/08/27 03:27:51;;;;;;;8.77;7.77;;;18.40;99.90;;;;;;4971736;28;20444;-86
2022/08/27 03:30:20;;;;;;;12.97;8.40;;;18.30;99.90;;;;;;4966236;28;20462;-85
2022/08/27 03:32:48;;;;;;;9.83;8.10;;;18.40;99.90;;;;;;4969692;28;20505;-85
2022/08/27 03:35:15;;;;;;;18.77;9.20;;;18.40;99.90;;;;;;4982074;28;20420;-83
2022/08/27 03:37:42;;;;;;;15.00;8.60;;;18.40;99.90;;;;;;4976292;28;20471;-84
2022/08/27 03:40:10;;;;;;;14.07;8.60;;;18.40;99.90;;;;;;4967457;28;20430;-84
2022/08/27 03:42:39;;;;;;;14.17;8.60;;;18.40;99.90;;;;;;4966338;28;20449;-84
2022/08/27 03:45:08;;;;;;;13.53;9.30;;;18.30;99.90;;;;;;4975030;28;20547;-86
2022/08/27 03:47:35;;;;;;;9.60;8.70;;;18.00;99.90;;;;;;4972456;28;20427;-87
2022/08/27 03:50:04;;;;;;;13.00;10.07;;;18.20;99.90;;;;;;4983632;28;20452;-87
2022/08/27 03:52:33;;;;;;;12.53;9.87;;;18.00;99.90;;;;;;4988552;28;20475;-88
2022/08/27 03:55:07;;;;;;;11.50;9.90;;;18.00;99.90;;;;;;4989360;28;20432;-85
2022/08/27 03:57:34;;;;;;;11.43;10.17;;;18.00;99.90;;;;;;4984427;28;20458;-85
2022/08/27 04:00:02;;;;;;;13.13;11.83;;;17.90;99.90;;;;;;4984817;28;20423;-83
2022/08/27 04:02:30;;;;;;;14.20;12.80;;;17.80;99.90;;;;;;4982440;28;20444;-85
2022/08/27 04:04:59;;;;;;;22.10;14.30;;;17.70;99.90;;;;;;4972329;28;20512;-86
2022/08/27 04:07:26;;;;;;;15.90;14.30;;;17.70;99.90;;;;;;4973362;28;20456;-85
2022/08/27 04:09:53;;;;;;;17.53;13.50;;;17.80;99.90;;;;;;4975047;28;20443;-88
2022/08/27 04:12:21;;;;;;;18.90;16.37;;;17.80;99.90;;;;;;4979546;28;20440;-86
2022/08/27 04:14:48;;;;;;;25.40;17.07;;;18.00;99.90;;;;;;4970034;28;20497;-85
2022/08/27 04:17:16;;;;;;;16.63;14.90;;;18.00;99.90;;;;;;4980214;28;20454;-85
2022/08/27 04:19:43;;;;;;;23.87;16.53;;;18.10;99.90;;;;;;4976676;28;20445;-87
2022/08/27 04:22:13;;;;;;;19.70;16.53;;;18.20;99.90;;;;;;4979845;28;20448;-86
2022/08/27 04:24:46;;;;;;;19.67;17.77;;;18.20;99.90;;;;;;4989505;28;20535;-86
2022/08/27 04:27:23;;;;;;;;;;;;;;;;;;;;;
2022/08/27 04:30:02;;;;;;;18.80;16.20;;;18.20;99.90;;;;;;4985101;28;20481;-89
2022/08/27 04:32:39;;;;;;;18.80;16.60;;;18.00;99.90;;;;;;4991539;28;20413;-90
2022/08/27 04:35:17;;;;;;;18.07;16.17;;;17.80;99.90;;;;;;4982390;28;20636;-85
2022/08/27 04:37:47;;;;;;;17.50;15.70;;;17.90;99.90;;;;;;4973971;28;20508;-87
2022/08/27 04:40:16;;;;;;;16.27;14.70;;;18.00;99.90;;;;;;4972463;28;20451;-87
2022/08/27 04:42:44;;;;;;;19.70;16.67;;;18.00;99.90;;;;;;4978053;28;20436;-85
2022/08/27 04:45:11;;;;;;;18.00;16.10;;;17.90;99.90;;;;;;4973010;28;20486;-84
2022/08/27 04:47:37;;;;;;;19.40;16.60;;;18.10;99.90;;;;;;4968326;28;20451;-88
2022/08/27 04:50:05;;;;;;;19.53;16.20;;;18.10;99.90;;;;;;4982669;28;20429;-87
2022/08/27 04:52:33;;;;;;;18.80;16.10;;;18.10;99.90;;;;;;4974897;28;20412;-86
2022/08/27 04:55:07;;;;;;;21.03;13.77;;;18.20;99.90;;;;;;4971669;28;20441;-85
2022/08/27 04:57:36;;;;;;;15.50;13.90;;;18.30;99.90;;;;;;4970758;28;20445;-84
2022/08/27 05:00:16;;;;;;;14.60;13.07;;;18.40;99.90;;;;;;4979835;28;20448;-86
2022/08/27 05:02:46;;;;;;;15.10;11.90;;;18.60;99.90;;;;;;4981871;28;20507;-84
2022/08/27 05:05:17;;;;;;;13.57;12.07;;;18.80;99.90;;;;;;4980446;28;20817;-88
2022/08/27 05:07:44;;;;;;;11.93;10.90;;;18.90;99.90;;;;;;4972942;28;20514;-86
2022/08/27 05:10:15;;;;;;;17.90;10.87;;;19.00;99.90;;;;;;4981592;28;20774;-86
2022/08/27 05:12:48;;;;;;;14.53;12.17;;;19.20;99.90;;;;;;4983442;28;20512;-87
2022/08/27 05:15:18;;;;;;;18.23;10.70;;;19.30;99.90;;;;;;4968616;28;20483;-90
2022/08/27 05:17:53;;;;;;;14.87;10.53;;;19.70;99.90;;;;;;4982419;28;20443;-86
2022/08/27 05:20:19;;;;;;;12.90;10.80;;;19.70;99.90;;;;;;4976070;28;20447;-87
2022/08/27 05:22:46;;;;;;;10.43;9.20;;;19.70;99.90;;;;;;4969869;28;20423;-85
2022/08/27 05:25:16;;;;;;;10.80;9.70;;;19.80;99.90;;;;;;4981249;28;20475;-87
2022/08/27 05:27:48;;;;;;;11.73;10.53;;;20.00;99.90;;;;;;4989704;28;20428;-87
2022/08/27 05:30:23;;;;;;;14.30;12.83;;;20.20;99.90;;;;;;4988424;28;20457;-86
2022/08/27 05:32:50;;;;;;;13.77;10.83;;;20.30;99.90;;;;;;4987594;28;20686;-87
2022/08/27 05:35:47;;;;;;;13.43;12.03;;;20.50;99.90;;;;;;4975946;28;20987;-90
2022/08/27 05:38:20;;;;;;;11.70;9.73;;;20.70;99.90;;;;;;4978317;28;20747;-88
2022/08/27 05:41:53;;;;;;;;;;;;;;;;;;;;;
2022/08/27 05:44:09;;;;;;;10.23;9.23;;;21.20;99.90;;;;;;4985607;28;20493;-88
2022/08/27 05:47:10;;;;;;;11.90;8.13;;;21.20;99.90;;;;;;5100267;23;20490;-88
2022/08/27 05:49:44;;;;;;;15.87;11.50;;;20.90;99.90;;;;;;5031975;28;20430;-85
2022/08/27 05:52:13;;;;;;;12.00;9.67;;;20.90;99.90;;;;;;5031310;28;20831;-91
2022/08/27 05:54:54;;;;;;;11.63;10.53;;;21.00;99.90;;;;;;5024976;28;20586;-89
2022/08/27 05:57:24;;;;;;;18.13;9.90;;;21.10;99.90;;;;;;5125194;23;20485;-86
2022/08/27 06:02:44;;;;;;;10.70;9.33;;;21.30;99.90;;;;;;5126167;22;20543;-88
2022/08/27 06:05:15;;;;;;;9.20;8.23;;;21.60;99.90;;;;;;5487932;22;21259;-88
2022/08/27 06:07:43;;;;;;;12.27;9.00;;;21.60;99.90;;;;;;5007691;28;20479;-89
2022/08/27 06:10:20;;;;;;;;;;;;;;;;;;;;;
2022/08/27 06:16:07;;;;;;;12.57;9.13;;;22.40;99.90;;;;;;5538427;23;20477;-85
2022/08/27 06:18:42;;;;;;;11.90;9.00;;;22.90;99.90;;;;;;5033062;28;20469;-87
2022/08/27 06:23:53;;;;;;;12.10;9.20;;;24.20;99.90;;;;;;5015859;22;20465;-88
2022/08/27 06:26:53;;;;;;;9.03;8.00;;;24.40;99.90;;;;;;5465130;23;20466;-87
2022/08/27 06:29:23;;;;;;;10.40;7.37;;;24.70;99.90;;;;;;5038134;28;20445;-90
2022/08/27 06:32:37;;;;;;;;;;;;;;;;;;;;;
2022/08/27 06:57:10;;;;;;;10.23;8.33;;;30.20;99.90;;;;;;4966811;29;20520;-87
2022/08/27 07:10:20;;;;;;;8.00;6.87;;;32.40;99.90;;;;;;5756631;23;20855;-90
2022/08/27 07:21:27;;;;;;;6.73;5.63;;;35.40;96.80;;;;;;5908830;23;20486;-91
2022/08/27 07:24:13;;;;;;;8.30;5.47;;;35.80;94.80;;;;;;5251576;23;20478;-88
2022/08/27 07:32:32;;;;;;;8.00;6.07;;;35.60;93.00;;;;;;5354486;23;20536;-88
2022/08/27 07:40:26;;;;;;;5.83;4.40;;;38.00;88.20;;;;;;5340044;23;20533;-88
2022/08/27 07:53:45;;;;;;;6.23;5.70;;;35.40;92.80;;;;;;5502785;22;20579;-84
2022/08/27 07:56:22;;;;;;;6.33;5.70;;;36.30;90.40;;;;;;5930763;22;20752;-87
2022/08/27 08:04:38;;;;;;;6.80;6.13;;;34.00;94.40;;;;;;5459947;23;20500;-88
2022/08/27 08:09:44;;;;;;;7.07;5.90;;;36.30;91.20;;;;;;5904088;23;20492;-92
2022/08/27 08:12:19;;;;;;;12.80;7.10;;;37.30;87.60;;;;;;5158209;23;20559;-90
2022/08/27 08:20:18;;;;;;;8.30;6.07;;;35.50;91.30;;;;;;5785361;23;20482;-90
2022/08/27 08:23:26;;;;;;;6.47;5.93;;;34.50;93.30;;;;;;5811092;23;20461;-91
2022/08/27 08:37:06;;;;;;;11.90;7.23;;;31.60;99.90;;;;;;5590915;23;20479;-90
2022/08/27 08:53:50;;;;;;;6.20;5.70;;;34.50;94.30;;;;;;5027299;28;20471;-90
2022/08/27 08:57:00;;;;;;;6.80;5.47;;;33.30;97.50;;;;;;5015219;28;20478;-90
2022/08/27 09:00:36;;;;;;;;;;;;;;;;;;;;;
2022/08/27 09:11:54;;;;;;;;;;;;;;;;;;;;;
2022/08/27 09:22:45;;;;;;;;;;;;;;;;;;;;;
2022/08/27 09:26:53;;;;;;;;;;;;;;;;;;;;;
2022/08/27 09:30:44;;;;;;;7.93;5.80;;;31.20;99.90;;;;;;4777543;30;20460;-90
2022/08/27 09:37:45;;;;;;;9.57;7.30;;;30.30;99.90;;;;;;4835085;29;20413;-90
2022/08/27 09:40:53;;;;;;;7.03;6.27;;;30.80;99.90;;;;;;4849637;29;20455;-90
2022/08/27 09:43:45;;;;;;;;;;;;;;;;;;;;;
2022/08/27 09:53:35;;;;;;;8.30;6.30;;;31.40;99.90;;;;;;5021883;28;20442;-87
2022/08/27 09:56:33;;;;;;;6.67;5.40;;;31.30;99.90;;;;;;5026124;28;20517;-88
2022/08/27 09:59:21;;;;;;;5.50;4.97;;;31.30;99.90;;;;;;5016613;28;20489;-88
2022/08/27 10:02:08;;;;;;;5.50;5.00;;;30.70;99.90;;;;;;5025409;28;20459;-88
2022/08/27 10:05:36;;;;;;;4.60;4.23;;;30.60;99.90;;;;;;5024181;28;20464;-90
2022/08/27 10:09:27;;;;;;;5.17;4.67;;;30.60;99.90;;;;;;5021130;28;20441;-87
2022/08/27 10:21:57;;;;;;;5.10;4.67;;;31.40;99.90;;;;;;5151436;23;20471;-92
2022/08/27 10:24:47;;;;;;;5.73;5.13;;;31.20;99.90;;;;;;5004770;28;20490;-89
2022/08/27 10:28:08;;;;;;;7.53;4.53;;;31.00;99.90;;;;;;5010394;28;20414;-88
2022/08/27 10:31:15;;;;;;;4.43;4.00;;;30.90;99.90;;;;;;5002394;28;20501;-89
2022/08/27 10:39:03;;;;;;;5.67;5.17;;;31.10;99.90;;;;;;4960244;28;20496;-90
2022/08/27 10:42:16;;;;;;;5.27;4.37;;;31.60;99.90;;;;;;4901145;29;20443;-88
2022/08/27 10:45:45;;;;;;;;;;;;;;;;;;;;;
2022/08/27 10:48:39;;;;;;;6.70;5.17;;;31.40;99.90;;;;;;4914235;29;20441;-86
2022/08/27 10:51:24;;;;;;;5.38;3.80;;;31.30;99.90;;;;;;4923369;29;20446;-84
2022/08/27 10:54:29;;;;;;;4.47;4.07;;;31.10;99.90;;;;;;4931152;29;20393;-87
2022/08/27 10:57:30;;;;;;;4.43;4.00;;;31.10;99.90;;;;;;4939421;29;20489;-88
2022/08/27 11:00:24;;;;;;;4.63;4.10;;;30.80;99.90;;;;;;4942976;28;20525;-88
2022/08/27 11:03:21;;;;;;;4.73;4.30;;;30.60;99.90;;;;;;4921710;29;20488;-87
2022/08/27 11:05:54;;;;;;;6.33;5.00;;;30.20;99.90;;;;;;4964658;28;20488;-87
2022/08/27 11:08:48;;;;;;;5.67;5.17;;;30.00;99.90;;;;;;4955491;28;20444;-89
2022/08/27 11:11:48;;;;;;;6.60;4.20;;;30.80;99.90;;;;;;4965480;28;20414;-87
2022/08/27 11:14:49;;;;;;;4.73;4.33;;;30.70;99.90;;;;;;4955731;28;20750;-86
2022/08/27 11:17:47;;;;;;;4.53;4.20;;;29.60;99.90;;;;;;5039252;28;20439;-87
2022/08/27 11:20:29;;;;;;;5.80;4.70;;;29.60;99.90;;;;;;5037856;28;20488;-89
2022/08/27 11:23:16;;;;;;;5.20;4.70;;;30.00;99.90;;;;;;5035831;28;20460;-87
2022/08/27 11:25:55;;;;;;;6.00;4.73;;;29.80;99.90;;;;;;5031196;28;20435;-88
2022/08/27 11:28:53;;;;;;;6.43;4.83;;;29.60;99.90;;;;;;5042610;28;20429;-86
2022/08/27 11:31:43;;;;;;;5.80;4.67;;;29.90;99.90;;;;;;5042224;28;20412;-88
2022/08/27 11:34:44;;;;;;;4.50;4.10;;;29.70;99.90;;;;;;5044162;28;20424;-88
2022/08/27 11:37:39;;;;;;;4.07;3.77;;;29.80;99.90;;;;;;5041144;28;20459;-87
2022/08/27 11:40:36;;;;;;;5.07;4.20;;;30.00;99.90;;;;;;5043671;28;20644;-85
2022/08/27 11:43:30;;;;;;;3.67;3.40;;;30.30;99.90;;;;;;5043969;28;20457;-86
2022/08/27 11:46:09;;;;;;;16.50;4.80;;;30.10;99.90;;;;;;5043497;28;20630;-86
2022/08/27 11:48:54;;;;;;;4.57;4.17;;;30.30;99.90;;;;;;5029040;28;20633;-87
2022/08/27 11:51:33;;;;;;;5.73;4.80;;;30.60;99.90;;;;;;5033543;28;20423;-85
2022/08/27 11:54:05;;;;;;;5.70;3.57;;;30.70;99.90;;;;;;5040312;28;20455;-86
2022/08/27 11:56:42;;;;;;;6.20;3.70;;;30.40;99.90;;;;;;5039884;28;20439;-88
2022/08/27 11:59:42;;;;;;;3.93;3.33;;;30.30;99.90;;;;;;5041758;28;20440;-88
2022/08/27 12:02:20;;;;;;;4.50;3.77;;;30.40;99.90;;;;;;5031887;28;20712;-88
2022/08/27 12:04:49;;;;;;;5.00;3.30;;;30.40;99.90;;;;;;5026118;28;20486;-85
2022/08/27 12:07:21;;;;;;;3.60;3.30;;;30.50;99.90;;;;;;5033856;28;20470;-87
2022/08/27 12:09:58;;;;;;;5.07;4.27;;;30.30;99.90;;;;;;5031326;28;20543;-87
2022/08/27 12:12:42;;;;;;;5.47;3.53;;;30.10;99.90;;;;;;5044533;28;20476;-87
2022/08/27 12:15:18;;;;;;;3.80;3.50;;;30.20;99.90;;;;;;5043507;28;20761;-87
2022/08/27 12:18:17;;;;;;;6.00;3.87;;;30.20;99.90;;;;;;5033214;28;20473;-88
2022/08/27 12:21:41;;;;;;;4.07;3.60;;;30.30;99.90;;;;;;5047758;28;20458;-89
2022/08/27 12:24:42;;;;;;;3.83;3.50;;;30.80;99.90;;;;;;5038441;28;20516;-86
2022/08/27 12:27:55;;;;;;;;;;;;;;;;;;;;;
2022/08/27 12:30:53;;;;;;;3.33;3.13;;;30.20;99.90;;;;;;5016245;28;20451;-89
2022/08/27 12:33:35;;;;;;;5.30;3.87;;;30.30;99.90;;;;;;5040986;28;20473;-84
2022/08/27 12:36:15;;;;;;;4.30;3.90;;;30.30;99.90;;;;;;5039010;28;20474;-84
2022/08/27 12:38:58;;;;;;;3.50;3.20;;;29.80;99.90;;;;;;5038697;28;20458;-88
2022/08/27 12:41:43;;;;;;;3.97;3.57;;;29.50;99.90;;;;;;5038774;28;20450;-86
2022/08/27 12:44:31;;;;;;;7.90;4.70;;;29.50;99.90;;;;;;5040322;28;20415;-86
2022/08/27 12:47:09;;;;;;;4.63;3.60;;;29.30;99.90;;;;;;5037481;28;20541;-84
2022/08/27 12:49:50;;;;;;;4.53;3.43;;;29.30;99.90;;;;;;5043140;28;20752;-84
2022/08/27 12:53:00;;;;;;;4.70;3.90;;;29.30;99.90;;;;;;5038206;28;20452;-87
2022/08/27 12:55:50;;;;;;;4.33;3.53;;;28.90;99.90;;;;;;5042068;28;20438;-85
2022/08/27 12:59:03;;;;;;;4.73;4.20;;;28.80;99.90;;;;;;5039442;28;20456;-89
2022/08/27 13:01:47;;;;;;;3.57;3.27;;;28.80;99.90;;;;;;5033651;28;20429;-86
2022/08/27 13:04:26;;;;;;;3.43;3.23;;;28.80;99.90;;;;;;5030935;28;20480;-85
2022/08/27 13:06:53;;;;;;;5.43;4.53;;;28.60;99.90;;;;;;5029755;28;20510;-82
2022/08/27 13:09:32;;;;;;;4.17;3.20;;;28.40;99.90;;;;;;5042939;28;20795;-85
2022/08/27 13:12:05;;;;;;;4.50;3.93;;;28.40;99.90;;;;;;5034918;28;20441;-83
2022/08/27 13:14:39;;;;;;;4.40;4.00;;;28.50;99.90;;;;;;5035633;28;20456;-83
2022/08/27 13:17:17;;;;;;;5.50;4.07;;;28.50;99.90;;;;;;5037359;28;20441;-84
2022/08/27 13:19:57;;;;;;;6.80;4.23;;;28.40;99.90;;;;;;5038558;28;20549;-83
2022/08/27 13:22:39;;;;;;;5.07;4.10;;;28.60;99.90;;;;;;5037623;28;20453;-83
2022/08/27 13:25:28;;;;;;;5.90;4.60;;;28.90;99.90;;;;;;5039852;28;20484;-83
2022/08/27 13:28:21;;;;;;;4.73;4.40;;;29.50;99.90;;;;;;5037106;28;20434;-81
2022/08/27 13:30:50;;;;;;;5.27;4.07;;;29.80;99.90;;;;;;5035194;28;20520;-82
2022/08/27 13:33:23;;;;;;;4.70;4.40;;;30.00;99.90;;;;;;5037574;28;20417;-82
2022/08/27 13:35:56;;;;;;;3.93;3.63;;;30.00;99.90;;;;;;5031500;28;20437;-83
2022/08/27 13:38:29;;;;;;;10.03;4.80;;;29.90;99.90;;;;;;5038417;28;20446;-84
2022/08/27 13:41:03;;;;;;;5.10;4.40;;;29.80;99.90;;;;;;5036938;28;20434;-85
2022/08/27 13:43:42;;;;;;;7.00;4.80;;;29.90;99.90;;;;;;5038072;28;20411;-84
2022/08/27 13:46:16;;;;;;;4.50;3.70;;;29.90;99.90;;;;;;5039188;28;20699;-87
2022/08/27 13:48:47;;;;;;;4.80;4.10;;;30.20;99.90;;;;;;5017400;28;20489;-86
2022/08/27 13:51:33;;;;;;;4.67;4.27;;;30.40;99.90;;;;;;5030808;28;20525;-87
2022/08/27 13:54:14;;;;;;;4.77;4.23;;;30.30;99.90;;;;;;5033943;28;20479;-85
2022/08/27 13:56:48;;;;;;;7.70;4.10;;;30.20;99.90;;;;;;5050964;28;20454;-85
2022/08/27 13:59:18;;;;;;;6.63;3.43;;;30.20;99.90;;;;;;5036212;28;20871;-85
2022/08/27 14:02:01;;;;;;;4.20;3.23;;;30.40;99.90;;;;;;5035568;28;20517;-84
2022/08/27 14:04:50;;;;;;;4.60;4.07;;;30.40;99.90;;;;;;5035355;28;20515;-87
2022/08/27 14:07:25;;;;;;;4.17;3.47;;;30.10;99.90;;;;;;5025842;28;20405;-83
2022/08/27 14:10:13;;;;;;;4.33;3.93;;;30.00;99.90;;;;;;5032829;28;20457;-86
2022/08/27 14:12:49;;;;;;;3.67;3.37;;;29.80;99.90;;;;;;5033678;28;20944;-87
2022/08/27 14:15:32;;;;;;;5.63;3.80;;;29.70;99.90;;;;;;5030843;28;20447;-84
2022/08/27 14:18:01;;;;;;;4.37;4.00;;;29.60;99.90;;;;;;5028888;28;20681;-85
2022/08/27 14:20:28;;;;;;;3.63;3.13;;;29.50;99.90;;;;;;5038299;28;20460;-84
2022/08/27 14:22:58;;;;;;;3.30;3.10;;;29.70;99.90;;;;;;5032559;28;20496;-86
2022/08/27 14:25:33;;;;;;;4.03;3.30;;;29.70;99.90;;;;;;5050055;28;20466;-85
2022/08/27 14:28:12;;;;;;;5.33;3.47;;;29.80;99.90;;;;;;5050690;28;20434;-85
2022/08/27 14:31:08;;;;;;;3.60;3.33;;;29.80;99.90;;;;;;5046608;28;20494;-85
2022/08/27 14:33:54;;;;;;;5.83;4.27;;;29.90;99.90;;;;;;5032669;28;20438;-85
2022/08/27 14:36:36;;;;;;;3.93;3.63;;;30.30;99.90;;;;;;5027974;28;20440;-84
2022/08/27 14:39:20;;;;;;;6.47;4.97;;;30.20;99.90;;;;;;5032717;28;20439;-85
2022/08/27 14:41:58;;;;;;;6.17;5.57;;;29.80;99.90;;;;;;5041110;28;20447;-86
2022/08/27 14:44:38;;;;;;;4.67;4.30;;;29.80;99.90;;;;;;5048957;28;20510;-85
2022/08/27 14:47:26;;;;;;;4.87;4.10;;;30.00;99.90;;;;;;5045937;28;20543;-87
2022/08/27 14:50:00;;;;;;;5.20;4.70;;;30.00;99.90;;;;;;5045849;28;20470;-85
2022/08/27 14:52:29;;;;;;;4.57;4.27;;;29.90;99.90;;;;;;5037195;28;20455;-86
2022/08/27 14:55:16;;;;;;;4.13;3.83;;;29.60;99.90;;;;;;5029676;28;20472;-86
2022/08/27 14:57:46;;;;;;;4.93;4.43;;;29.70;99.90;;;;;;5033960;28;20455;-86
2022/08/27 15:00:13;;;;;;;4.47;4.03;;;29.40;99.90;;;;;;5030337;28;20454;-85
2022/08/27 15:02:48;;;;;;;4.93;4.53;;;29.40;99.90;;;;;;5040239;28;20446;-86
2022/08/27 15:05:18;;;;;;;4.30;3.90;;;29.30;99.90;;;;;;5029550;28;20438;-86
2022/08/27 15:08:00;;;;;;;5.30;4.70;;;29.20;99.90;;;;;;5041408;28;20532;-86
2022/08/27 15:11:26;;;;;;;;;;;;;;;;;;;;;
2022/08/27 15:14:46;;;;;;;;;;;;;;;;;;;;;
2022/08/27 15:18:36;;;;;;;;;;;;;;;;;;;;;
2022/08/27 15:22:00;;;;;;;5.53;4.47;;;28.50;99.90;;;;;;4919743;29;20437;-84
2022/08/27 15:29:52;;;;;;;;;;;;;;;;;;;;;
2022/08/27 16:58:35;;;;;;;;;;;;;;;;;;;;;
2022/08/27 17:13:48;;;;;;;;;;;;;;;;;;;;;
2022/08/27 17:17:38;;;;;;;4.90;4.27;;;27.90;99.90;;;;;;5808110;24;20413;-85
2022/08/27 17:20:33;;;;;;;6.70;5.27;;;27.80;99.90;;;;;;5800197;24;20488;-84
2022/08/27 17:24:01;;;;;;;11.27;6.13;;;27.50;99.90;;;;;;5945749;23;20401;-83
2022/08/27 17:26:31;;;;;;;5.57;4.53;;;27.30;99.90;;;;;;6071055;23;20445;-84
2022/08/27 17:29:01;;;;;;;5.17;4.67;;;27.10;99.90;;;;;;6135581;23;20403;-84
2022/08/27 17:31:37;;;;;;;5.27;4.50;;;27.10;99.90;;;;;;6160734;23;20385;-85
2022/08/27 17:34:10;;;;;;;4.50;4.10;;;26.80;99.90;;;;;;6160660;23;20408;-84
2022/08/27 17:36:40;;;;;;;7.17;5.00;;;26.70;99.90;;;;;;6135592;23;20380;-84
2022/08/27 17:39:20;;;;;;;4.37;3.97;;;26.70;99.90;;;;;;6160003;23;20386;-84
2022/08/27 17:42:19;;;;;;;4.37;3.80;;;26.60;99.90;;;;;;6161096;23;20359;-84
2022/08/27 17:45:20;;;;;;;5.53;4.20;;;26.40;99.90;;;;;;5965054;24;20397;-86
2022/08/27 17:48:18;;;;;;;5.73;5.23;;;26.30;99.90;;;;;;5983805;23;20552;-83
2022/08/27 17:50:52;;;;;;;10.50;4.40;;;26.20;99.90;;;;;;5969686;23;20436;-83
2022/08/27 17:53:19;;;;;;;5.27;4.87;;;26.00;99.90;;;;;;5984524;24;20413;-83
2022/08/27 17:55:53;;;;;;;4.50;4.10;;;26.00;99.90;;;;;;5981987;24;20575;-84
2022/08/27 17:58:21;;;;;;;5.90;5.40;;;25.80;99.90;;;;;;5983195;24;20374;-83
2022/08/27 18:00:48;;;;;;;5.60;5.07;;;25.70;99.90;;;;;;5983708;24;20382;-82
2022/08/27 18:03:18;;;;;;;6.20;5.70;;;25.70;99.90;;;;;;6101004;23;20420;-85
2022/08/27 18:05:48;;;;;;;8.30;6.27;;;25.60;99.90;;;;;;6130927;23;20411;-83
2022/08/27 18:08:15;;;;;;;5.63;5.13;;;25.70;99.90;;;;;;6130362;23;20378;-84
2022/08/27 18:10:47;;;;;;;5.60;4.87;;;25.50;99.90;;;;;;6127871;23;20368;-83
2022/08/27 18:13:14;;;;;;;8.00;6.40;;;25.50;99.90;;;;;;6128673;23;20482;-84
2022/08/27 18:15:43;;;;;;;9.73;8.83;;;25.40;99.90;;;;;;6128512;23;20640;-84
2022/08/27 18:18:17;;;;;;;6.17;5.27;;;25.30;99.90;;;;;;6129952;23;20705;-83
2022/08/27 18:20:58;;;;;;;8.17;5.77;;;25.20;99.90;;;;;;6125498;23;20417;-84
2022/08/27 18:23:26;;;;;;;6.63;5.30;;;25.20;99.90;;;;;;6105098;23;20400;-83
2022/08/27 18:25:54;;;;;;;5.07;4.67;;;25.20;99.90;;;;;;6104888;23;20592;-82
2022/08/27 18:28:22;;;;;;;6.77;6.07;;;25.10;99.90;;;;;;6138620;23;20378;-83
2022/08/27 18:30:50;;;;;;;6.77;5.93;;;25.10;99.90;;;;;;6148294;23;20363;-83